VHHH/HKG METAR and TAF weather

Enter ICAO airport designator
Station Type Date Time Source
VHHH METAR 2022/09/26 10:00 UTC NOAA

VHHH 261000Z 11011G22KT 9999 FEW030 31/22 Q1007 NOSIG


Station Type Date Time Source
VHHH Decoded METAR 2022/09/26 10:00 UTC NOAA

Hong Kong Inter-National Airport, Hong Kong (VHHH) 22-20N 114-11E 24M
Sep 26, 2022 - 06:00 AM EDT / 2022.09.26 1000 UTC
Wind: from the ESE (110 degrees) at 13 MPH (11 KT) gusting to 25 MPH (22 KT):0
Visibility: greater than 7 mile(s):0
Sky conditions: mostly clear
Temperature: 87 F (31 C)
Heat index: 92.3 F (33.5 C):1
Dew Point: 71 F (22 C)
Relative Humidity: 58%
Pressure (altimeter): 29.74 in. Hg (1007 hPa)
ob: VHHH 261000Z 11011G22KT 9999 FEW030 31/22 Q1007 NOSIG
cycle: 10

Station Type Date Time Source
VHHH TAF 2022/09/26 09:20 UTC NOAA

TAF VHHH 260800Z 2609/2715 08010KT 9999 FEW020 SCT035 TX33/2706Z TN28/2622Z
TEMPO 2609/2611 30010KT
TEMPO 2702/2708 08015G25KT 4000 SHRA

Example: see airport list